Time;durP1;ratioP1;P1;durP2;ratioP2;P2;SDS_P1;SDS_P2;PMS_P1;PMS_P2;Temp;Humidity;BMP_temperature;BMP_pressure;BME280_temperature;BME280_humidity;BME280_pressure;Samples;Min_cycle;Max_cycle;Signal;HPM_P1;HPM_P2
2022/08/01 00:00:33;;;;;;;;;;;27.50;38.10;;;;;;1550266;75;703;-68
2022/08/01 00:02:34;;;;;;;;;;;27.50;38.20;;;;;;1538686;75;1153;-68
2022/08/01 00:04:36;;;;;;;;;;;27.50;38.10;;;;;;1544143;75;701;-71
2022/08/01 00:06:38;;;;;;;;;;;27.50;38.20;;;;;;1536940;76;792;-71
2022/08/01 00:08:40;;;;;;;;;;;27.60;38.30;;;;;;1550767;75;1577;-70
2022/08/01 00:10:42;;;;;;;;;;;27.60;38.30;;;;;;1546708;75;1971;-69
2022/08/01 00:12:44;;;;;;;;;;;27.50;38.30;;;;;;1536837;75;1242;-69
2022/08/01 00:14:46;;;;;;;;;;;27.60;38.30;;;;;;1541624;75;760;-69
2022/08/01 00:16:47;;;;;;;;;;;27.70;38.20;;;;;;1546154;75;692;-68
2022/08/01 00:18:50;;;;;;;;;;;27.60;38.20;;;;;;1551064;75;765;-70
2022/08/01 00:20:52;;;;;;;;;;;27.60;38.20;;;;;;1550304;75;738;-66
2022/08/01 00:22:54;;;;;;;;;;;27.60;38.30;;;;;;1543687;75;1165;-68
2022/08/01 00:24:56;;;;;;;;;;;27.50;38.30;;;;;;1547453;75;925;-69
2022/08/01 00:26:57;;;;;;;;;;;27.50;38.30;;;;;;1543821;75;784;-72
2022/08/01 00:28:59;;;;;;;;;;;27.50;38.40;;;;;;1547432;76;776;-72
2022/08/01 00:31:01;;;;;;;;;;;27.50;38.50;;;;;;1549674;76;1927;-69
2022/08/01 00:33:03;;;;;;;;;;;27.40;38.40;;;;;;1547137;75;1138;-70
2022/08/01 00:35:06;;;;;;;;;;;27.50;38.40;;;;;;1545423;75;689;-69
2022/08/01 00:37:08;;;;;;;;;;;27.40;38.40;;;;;;1538367;75;672;-70
2022/08/01 00:39:09;;;;;;;;;;;27.40;38.50;;;;;;1549974;76;844;-69
2022/08/01 00:41:11;;;;;;;;;;;27.50;38.50;;;;;;1548254;76;631;-70
2022/08/01 00:43:14;;;;;;;;;;;27.40;38.50;;;;;;1548399;75;1154;-70
2022/08/01 00:45:15;;;;;;;;;;;27.40;38.50;;;;;;1550358;75;768;-70
2022/08/01 00:47:17;;;;;;;;;;;27.40;38.60;;;;;;1545765;75;714;-70
2022/08/01 00:49:19;;;;;;;;;;;27.50;38.60;;;;;;1548530;75;721;-71
2022/08/01 00:51:21;;;;;;;;;;;27.50;38.60;;;;;;1545925;75;1927;-71
2022/08/01 00:53:23;;;;;;;;;;;27.40;38.60;;;;;;1545929;75;1174;-72
2022/08/01 00:55:25;;;;;;;;;;;27.50;38.60;;;;;;1542516;75;806;-69
2022/08/01 00:57:27;;;;;;;;;;;27.50;38.60;;;;;;1547937;76;829;-69
2022/08/01 00:59:29;;;;;;;;;;;27.40;38.60;;;;;;1542619;76;630;-69
2022/08/01 01:01:31;;;;;;;;;;;27.40;38.60;;;;;;1539978;76;741;-69
2022/08/01 01:03:33;;;;;;;;;;;27.40;38.60;;;;;;1554188;72;228338;-65
2022/08/01 01:05:36;;;;;;;;;;;27.50;38.70;;;;;;1553335;74;1467;-66
2022/08/01 01:07:43;;;;;;;;;;;27.40;38.60;;;;;;1558854;74;598;-67
2022/08/01 01:09:46;;;;;;;;;;;27.40;38.70;;;;;;1566831;74;1921;-71
2022/08/01 01:11:50;;;;;;;;;;;27.40;38.60;;;;;;1561166;74;697;-65
2022/08/01 01:13:53;;;;;;;;;;;27.40;38.70;;;;;;1556338;74;1179;-69
2022/08/01 01:16:02;;;;;;;;;;;27.50;38.80;;;;;;1546686;75;663;-64
2022/08/01 01:18:04;;;;;;;;;;;27.50;38.80;;;;;;1560791;75;699;-65
2022/08/01 01:20:07;;;;;;;;;;;27.50;38.80;;;;;;1560850;75;708;-64
2022/08/01 01:22:13;;;;;;;;;;;27.40;38.80;;;;;;1551431;75;684;-65
2022/08/01 01:24:35;;;;;;;;;;;27.40;38.90;;;;;;1549387;75;735;-64
2022/08/01 01:26:54;;;;;;;;;;;27.40;38.90;;;;;;1558482;75;631;-63
2022/08/01 01:29:03;;;;;;;;;;;27.50;38.90;;;;;;1537899;75;557;-66
2022/08/01 01:31:05;;;;;;;;;;;27.40;38.90;;;;;;1546509;75;1935;-65
2022/08/01 01:33:07;;;;;;;;;;;27.40;38.90;;;;;;1540662;75;1225;-66
2022/08/01 01:35:20;;;;;;;;;;;27.50;38.90;;;;;;1560231;75;649;-67
2022/08/01 01:37:22;;;;;;;;;;;27.40;38.90;;;;;;1550350;75;1076;-67
2022/08/01 01:39:24;;;;;;;;;;;27.40;38.90;;;;;;1556378;75;800;-65
2022/08/01 01:41:26;;;;;;;;;;;27.40;38.80;;;;;;1554386;75;702;-66
2022/08/01 01:43:28;;;;;;;;;;;27.50;38.90;;;;;;1556375;75;1101;-63
2022/08/01 01:45:30;;;;;;;;;;;27.50;38.90;;;;;;1546595;75;685;-66
2022/08/01 01:47:32;;;;;;;;;;;27.40;38.90;;;;;;1564081;75;985;-66
2022/08/01 01:49:34;;;;;;;;;;;27.50;38.90;;;;;;1545630;75;644;-67
2022/08/01 01:51:36;;;;;;;;;;;27.40;38.90;;;;;;1569967;75;1940;-71
2022/08/01 01:53:37;;;;;;;;;;;27.50;38.80;;;;;;1554011;75;1164;-69
2022/08/01 01:55:39;;;;;;;;;;;27.50;38.80;;;;;;1559050;75;725;-67
2022/08/01 01:57:41;;;;;;;;;;;27.50;38.90;;;;;;1557982;75;760;-71
2022/08/01 01:59:43;;;;;;;;;;;27.50;38.80;;;;;;1555255;75;721;-66
2022/08/01 02:01:45;;;;;;;;;;;27.40;38.90;;;;;;1570309;75;1314;-66
2022/08/01 02:03:48;;;;;;;;;;;27.50;38.90;;;;;;1553070;75;1048;-66
2022/08/01 02:05:50;;;;;;;;;;;27.40;38.90;;;;;;1544250;75;561;-67
2022/08/01 02:07:52;;;;;;;;;;;27.50;38.90;;;;;;1550918;75;701;-66
2022/08/01 02:09:54;;;;;;;;;;;27.50;38.90;;;;;;1555284;75;738;-66
2022/08/01 02:11:56;;;;;;;;;;;27.50;38.90;;;;;;1551808;75;1949;-66
2022/08/01 02:13:59;;;;;;;;;;;27.40;38.90;;;;;;1553018;75;1137;-65
2022/08/01 02:16:00;;;;;;;;;;;27.40;38.90;;;;;;1551803;75;663;-65
2022/08/01 02:18:03;;;;;;;;;;;27.40;38.90;;;;;;1557446;75;631;-66
2022/08/01 02:20:05;;;;;;;;;;;27.50;38.90;;;;;;1549579;75;744;-66
2022/08/01 02:22:17;;;;;;;;;;;27.40;39.00;;;;;;1551986;75;753;-65
2022/08/01 02:24:26;;;;;;;;;;;27.40;39.00;;;;;;1535540;75;700;-64
2022/08/01 02:26:28;;;;;;;;;;;27.50;39.00;;;;;;1561089;75;962;-68
2022/08/01 02:28:32;;;;;;;;;;;27.40;39.00;;;;;;1551868;75;630;-65
2022/08/01 02:30:38;;;;;;;;;;;27.40;39.00;;;;;;1552502;75;1964;-66
2022/08/01 02:32:54;;;;;;;;;;;27.40;39.10;;;;;;1554801;75;1178;-66
2022/08/01 02:34:55;;;;;;;;;;;27.10;39.10;;;;;;1548714;75;642;-65
2022/08/01 02:36:57;;;;;;;;;;;27.40;39.10;;;;;;1539567;75;575;-68
2022/08/01 02:38:59;;;;;;;;;;;27.40;39.20;;;;;;1547425;75;725;-66
2022/08/01 02:41:03;;;;;;;;;;;27.40;39.10;;;;;;1536435;75;641;-66
2022/08/01 02:43:05;;;;;;;;;;;27.40;39.20;;;;;;1562673;75;1130;-66
2022/08/01 02:45:08;;;;;;;;;;;27.40;39.20;;;;;;1558910;75;748;-66
2022/08/01 02:47:10;;;;;;;;;;;27.40;39.10;;;;;;1556201;75;658;-66
2022/08/01 02:49:12;;;;;;;;;;;27.40;39.00;;;;;;1559083;75;674;-65
2022/08/01 02:51:14;;;;;;;;;;;27.40;39.10;;;;;;1559221;75;1936;-65
2022/08/01 02:53:17;;;;;;;;;;;27.40;39.10;;;;;;1557722;74;1174;-64
2022/08/01 02:55:19;;;;;;;;;;;27.40;39.10;;;;;;1561911;75;764;-67
2022/08/01 02:57:21;;;;;;;;;;;27.40;39.10;;;;;;1544907;75;1454;-65
2022/08/01 02:59:25;;;;;;;;;;;27.40;39.10;;;;;;1551097;75;780;-66
2022/08/01 03:01:26;;;;;;;;;;;27.40;39.20;;;;;;1556665;75;1488;-66
2022/08/01 03:03:28;;;;;;;;;;;27.40;39.10;;;;;;1550155;75;1144;-65
2022/08/01 03:05:31;;;;;;;;;;;27.40;39.20;;;;;;1543346;75;666;-65
2022/08/01 03:07:33;;;;;;;;;;;27.40;39.20;;;;;;1555226;75;668;-65
2022/08/01 03:09:37;;;;;;;;;;;27.40;39.20;;;;;;1553803;75;667;-65
2022/08/01 03:11:39;;;;;;;;;;;27.40;39.20;;;;;;1543174;75;1904;-66
2022/08/01 03:13:42;;;;;;;;;;;27.40;39.20;;;;;;1549781;75;1165;-65
2022/08/01 03:15:44;;;;;;;;;;;27.40;39.20;;;;;;1529367;76;689;-64
2022/08/01 03:17:45;;;;;;;;;;;27.40;39.20;;;;;;1533289;76;628;-68
2022/08/01 03:19:47;;;;;;;;;;;27.40;39.20;;;;;;1537037;76;686;-65
2022/08/01 03:21:49;;;;;;;;;;;27.40;39.20;;;;;;1517659;76;816;-67
2022/08/01 03:23:56;;;;;;;;;;;27.40;39.20;;;;;;1526180;76;1115;-64
2022/08/01 03:25:55;;;;;;;;;;;27.40;39.20;;;;;;1527059;76;1581;-65
2022/08/01 03:27:57;;;;;;;;;;;27.40;39.30;;;;;;1544048;76;685;-65
2022/08/01 03:29:59;;;;;;;;;;;27.40;39.30;;;;;;1532637;76;696;-65
2022/08/01 03:32:01;;;;;;;;;;;27.40;39.40;;;;;;1522511;77;1945;-65
2022/08/01 03:34:03;;;;;;;;;;;27.40;39.40;;;;;;1528227;76;1074;-66
2022/08/01 03:36:05;;;;;;;;;;;27.30;39.40;;;;;;1521909;76;685;-65
2022/08/01 03:38:08;;;;;;;;;;;27.30;39.40;;;;;;1519554;76;636;-65
2022/08/01 03:40:11;;;;;;;;;;;27.40;39.40;;;;;;1522833;77;682;-66
2022/08/01 03:42:15;;;;;;;;;;;27.30;39.40;;;;;;1517518;76;1147;-64
2022/08/01 03:44:18;;;;;;;;;;;27.40;39.40;;;;;;1514813;77;636;-66
2022/08/01 03:46:21;;;;;;;;;;;27.30;39.40;;;;;;1518903;77;732;-64
2022/08/01 03:48:23;;;;;;;;;;;27.40;39.40;;;;;;1520416;76;695;-65
2022/08/01 03:50:25;;;;;;;;;;;27.30;39.40;;;;;;1520325;76;752;-65
2022/08/01 03:52:28;;;;;;;;;;;27.40;39.40;;;;;;1533782;75;1957;-67
2022/08/01 03:54:31;;;;;;;;;;;27.40;39.40;;;;;;1525402;76;1598;-66
2022/08/01 03:56:33;;;;;;;;;;;27.30;39.40;;;;;;1522655;76;686;-65
2022/08/01 03:58:35;;;;;;;;;;;27.30;39.50;;;;;;1522550;76;713;-66
2022/08/01 04:00:41;;;;;;;;;;;27.30;39.50;;;;;;1519530;76;710;-64
2022/08/01 04:02:41;;;;;;;;;;;27.30;39.40;;;;;;1521954;76;1415;-65
2022/08/01 04:04:42;;;;;;;;;;;27.40;39.50;;;;;;1502550;77;1251;-65
2022/08/01 04:06:44;;;;;;;;;;;27.30;39.50;;;;;;1518197;76;683;-68
2022/08/01 04:08:55;;;;;;;;;;;27.30;39.60;;;;;;1548433;75;686;-66
2022/08/01 04:10:50;;;;;;;;;;;27.30;39.50;;;;;;1537336;75;1923;-64
2022/08/01 04:12:52;;;;;;;;;;;27.30;39.50;;;;;;1536491;75;1284;-65
2022/08/01 04:14:54;;;;;;;;;;;27.30;39.50;;;;;;1535077;75;739;-65
2022/08/01 04:16:55;;;;;;;;;;;27.30;39.50;;;;;;1543910;75;723;-63
2022/08/01 04:18:57;;;;;;;;;;;27.20;39.50;;;;;;1544722;75;702;-65
2022/08/01 04:20:59;;;;;;;;;;;27.30;39.60;;;;;;1556259;75;690;-67
2022/08/01 04:23:01;;;;;;;;;;;27.30;39.60;;;;;;1549555;74;1088;-64
2022/08/01 04:25:04;;;;;;;;;;;27.20;39.60;;;;;;1547300;75;672;-64
2022/08/01 04:27:07;;;;;;;;;;;27.20;39.50;;;;;;1538699;75;758;-65
2022/08/01 04:29:09;;;;;;;;;;;27.20;39.50;;;;;;1544461;75;945;-64
2022/08/01 04:31:11;;;;;;;;;;;27.20;39.50;;;;;;1556952;75;1926;-64
2022/08/01 04:33:15;;;;;;;;;;;27.20;39.50;;;;;;1537195;75;1140;-64
2022/08/01 04:35:17;;;;;;;;;;;27.20;39.50;;;;;;1536802;75;671;-64
2022/08/01 04:37:19;;;;;;;;;;;27.20;39.50;;;;;;1534932;75;679;-64
2022/08/01 04:39:22;;;;;;;;;;;27.20;39.50;;;;;;1555177;75;794;-65
2022/08/01 04:41:23;;;;;;;;;;;27.30;39.50;;;;;;1540989;76;595;-64
2022/08/01 04:43:25;;;;;;;;;;;27.20;39.60;;;;;;1532803;75;1140;-65
2022/08/01 04:45:27;;;;;;;;;;;27.20;39.60;;;;;;1531146;75;688;-65
2022/08/01 04:47:30;;;;;;;;;;;27.20;39.50;;;;;;1530666;75;699;-68
2022/08/01 04:49:32;;;;;;;;;;;27.30;39.50;;;;;;1533319;76;678;-70
2022/08/01 04:51:34;;;;;;;;;;;27.20;39.50;;;;;;1537137;75;1967;-64
2022/08/01 04:53:36;;;;;;;;;;;27.20;39.50;;;;;;1532761;75;1132;-65
2022/08/01 04:55:37;;;;;;;;;;;27.30;39.50;;;;;;1545454;75;549;-65
2022/08/01 04:57:44;;;;;;;;;;;27.30;39.50;;;;;;1546957;75;665;-64
2022/08/01 04:59:46;;;;;;;;;;;27.30;39.50;;;;;;1539623;75;677;-67
2022/08/01 05:01:51;;;;;;;;;;;27.20;39.50;;;;;;1551379;75;692;-65
2022/08/01 05:03:53;;;;;;;;;;;27.30;39.50;;;;;;1544900;75;1179;-65
2022/08/01 05:05:55;;;;;;;;;;;27.20;39.60;;;;;;1543730;75;797;-67
2022/08/01 05:07:56;;;;;;;;;;;27.30;39.60;;;;;;1539093;75;675;-65
2022/08/01 05:09:58;;;;;;;;;;;27.20;39.50;;;;;;1535339;75;666;-65
2022/08/01 05:12:01;;;;;;;;;;;27.20;39.60;;;;;;1541037;75;1934;-66
2022/08/01 05:14:03;;;;;;;;;;;27.30;39.50;;;;;;1536285;75;1091;-67
2022/08/01 05:16:07;;;;;;;;;;;27.30;39.60;;;;;;1535489;75;709;-65
2022/08/01 05:18:09;;;;;;;;;;;27.30;39.60;;;;;;1550587;75;666;-66
2022/08/01 05:20:11;;;;;;;;;;;27.20;39.50;;;;;;1537778;76;749;-65
2022/08/01 05:22:13;;;;;;;;;;;27.20;39.60;;;;;;1544377;75;696;-66
2022/08/01 05:24:15;;;;;;;;;;;27.20;39.60;;;;;;1544144;75;751;-67
2022/08/01 05:26:17;;;;;;;;;;;27.20;39.50;;;;;;1546680;76;648;-67
2022/08/01 05:28:19;;;;;;;;;;;27.20;39.50;;;;;;1549420;75;718;-66
2022/08/01 05:30:21;;;;;;;;;;;27.20;39.40;;;;;;1551940;76;725;-66
2022/08/01 05:32:23;;;;;;;;;;;27.10;39.40;;;;;;1545550;75;1951;-68
2022/08/01 05:34:25;;;;;;;;;;;27.20;39.40;;;;;;1552433;75;625;-65
2022/08/01 05:36:26;;;;;;;;;;;27.20;39.50;;;;;;1543348;75;733;-66
2022/08/01 05:38:28;;;;;;;;;;;27.30;39.40;;;;;;1556816;75;683;-66
2022/08/01 05:40:30;;;;;;;;;;;27.30;39.40;;;;;;1547847;75;693;-65
2022/08/01 05:42:32;;;;;;;;;;;27.20;39.30;;;;;;1550487;75;1145;-66
2022/08/01 05:44:34;;;;;;;;;;;27.20;39.20;;;;;;1540765;75;675;-65
2022/08/01 05:46:36;;;;;;;;;;;27.20;39.10;;;;;;1538618;75;1450;-72
2022/08/01 05:48:38;;;;;;;;;;;27.20;39.20;;;;;;1540644;76;553;-65
2022/08/01 05:50:40;;;;;;;;;;;27.20;39.10;;;;;;1543127;75;663;-65
2022/08/01 05:52:41;;;;;;;;;;;27.20;39.00;;;;;;1548157;75;1949;-66
2022/08/01 05:54:43;;;;;;;;;;;27.20;39.20;;;;;;1547272;75;701;-64
2022/08/01 05:56:45;;;;;;;;;;;27.30;38.90;;;;;;1540012;75;707;-64
2022/08/01 05:58:47;;;;;;;;;;;27.20;38.90;;;;;;1564906;75;663;-65
2022/08/01 06:00:49;;;;;;;;;;;27.20;38.90;;;;;;1550205;75;675;-64
2022/08/01 06:02:51;;;;;;;;;;;27.20;38.90;;;;;;1545571;75;1180;-64
2022/08/01 06:04:53;;;;;;;;;;;27.10;38.90;;;;;;1536736;75;696;-65
2022/08/01 06:06:55;;;;;;;;;;;27.10;38.90;;;;;;1541593;75;804;-64
2022/08/01 06:08:57;;;;;;;;;;;27.10;38.90;;;;;;1539520;75;692;-65
2022/08/01 06:10:58;;;;;;;;;;;27.00;38.90;;;;;;1533588;75;679;-66
2022/08/01 06:13:02;;;;;;;;;;;27.10;38.90;;;;;;1538152;74;1940;-66
2022/08/01 06:15:05;;;;;;;;;;;27.10;38.90;;;;;;1538204;75;1305;-65
2022/08/01 06:17:06;;;;;;;;;;;27.00;38.80;;;;;;1540121;75;701;-65
2022/08/01 06:19:08;;;;;;;;;;;27.00;38.80;;;;;;1536071;75;720;-65
2022/08/01 06:21:10;;;;;;;;;;;27.00;38.70;;;;;;1540636;75;731;-65
2022/08/01 06:23:13;;;;;;;;;;;27.00;38.70;;;;;;1542478;75;1140;-64
2022/08/01 06:25:15;;;;;;;;;;;26.90;38.10;;;;;;1542382;75;709;-65
2022/08/01 06:27:17;;;;;;;;;;;26.90;38.00;;;;;;1540165;75;781;-65
2022/08/01 06:29:19;;;;;;;;;;;26.90;37.90;;;;;;1538055;75;763;-64
2022/08/01 06:31:21;;;;;;;;;;;26.90;37.90;;;;;;1553998;75;676;-65
2022/08/01 06:33:22;;;;;;;;;;;26.90;37.90;;;;;;1545960;75;1936;-64
2022/08/01 06:35:24;;;;;;;;;;;26.90;37.90;;;;;;1550180;75;686;-64
2022/08/01 06:37:33;;;;;;;;;;;27.00;38.60;;;;;;1536602;75;707;-64
2022/08/01 06:39:35;;;;;;;;;;;26.90;37.90;;;;;;1545010;75;635;-63
2022/08/01 06:41:36;;;;;;;;;;;26.90;37.90;;;;;;1549460;75;707;-63
2022/08/01 06:43:38;;;;;;;;;;;26.90;37.90;;;;;;1537468;76;1389;-62
2022/08/01 06:45:40;;;;;;;;;;;26.90;38.00;;;;;;1543536;75;737;-66
2022/08/01 06:47:42;;;;;;;;;;;26.90;38.00;;;;;;1537092;75;665;-64
2022/08/01 06:49:44;;;;;;;;;;;26.90;38.00;;;;;;1531700;76;699;-65
2022/08/01 06:51:46;;;;;;;;;;;26.90;38.00;;;;;;1533771;75;1935;-65
2022/08/01 06:53:48;;;;;;;;;;;26.90;38.00;;;;;;1538033;75;1134;-64
2022/08/01 06:55:50;;;;;;;;;;;26.90;38.00;;;;;;1534158;75;751;-65
2022/08/01 06:57:52;;;;;;;;;;;26.90;38.00;;;;;;1533054;75;676;-66
2022/08/01 06:59:54;;;;;;;;;;;26.90;38.00;;;;;;1536404;75;708;-65
2022/08/01 07:01:56;;;;;;;;;;;26.90;38.00;;;;;;1536286;75;788;-65
2022/08/01 07:03:58;;;;;;;;;;;26.90;38.00;;;;;;1568667;72;2081;-69
2022/08/01 07:06:00;;;;;;;;;;;26.90;38.00;;;;;;1574333;73;763;-69
2022/08/01 07:08:01;;;;;;;;;;;26.90;38.00;;;;;;1581107;73;738;-69
2022/08/01 07:10:03;;;;;;;;;;;26.90;38.10;;;;;;1571678;73;661;-69
2022/08/01 07:12:06;;;;;;;;;;;26.90;38.00;;;;;;1579362;73;1932;-69
2022/08/01 07:14:07;;;;;;;;;;;26.90;38.10;;;;;;1564539;74;1210;-71
2022/08/01 07:16:09;;;;;;;;;;;26.90;38.10;;;;;;1574729;74;767;-69
2022/08/01 07:18:11;;;;;;;;;;;26.90;38.00;;;;;;1570560;74;773;-69
2022/08/01 07:20:13;;;;;;;;;;;26.90;38.10;;;;;;1566826;74;813;-69
2022/08/01 07:22:16;;;;;;;;;;;26.90;38.10;;;;;;1565971;74;696;-69
2022/08/01 07:24:18;;;;;;;;;;;26.90;38.10;;;;;;1527161;76;1138;-68
2022/08/01 07:26:20;;;;;;;;;;;26.90;38.10;;;;;;1583776;74;753;-69
2022/08/01 07:28:22;;;;;;;;;;;26.90;38.10;;;;;;1570438;74;684;-69
2022/08/01 07:30:23;;;;;;;;;;;26.90;38.10;;;;;;1578766;74;800;-69
2022/08/01 07:32:25;;;;;;;;;;;26.90;38.10;;;;;;1570976;74;1927;-69
2022/08/01 07:34:27;;;;;;;;;;;26.90;38.20;;;;;;1575459;73;1106;-68
2022/08/01 07:36:29;;;;;;;;;;;26.90;38.20;;;;;;1569562;74;719;-67
2022/08/01 07:38:31;;;;;;;;;;;26.90;38.20;;;;;;1573239;74;1509;-68
2022/08/01 07:40:33;;;;;;;;;;;26.90;38.20;;;;;;1567901;74;744;-68
2022/08/01 07:42:35;;;;;;;;;;;26.90;38.30;;;;;;1569853;74;686;-68
2022/08/01 07:44:37;;;;;;;;;;;26.90;38.20;;;;;;1571919;74;690;-68
2022/08/01 07:46:39;;;;;;;;;;;27.00;38.90;;;;;;1567189;74;660;-68
2022/08/01 07:48:41;;;;;;;;;;;27.00;38.80;;;;;;1567073;74;680;-68
2022/08/01 07:50:43;;;;;;;;;;;27.00;38.70;;;;;;1565963;74;751;-68
2022/08/01 07:52:45;;;;;;;;;;;27.10;38.70;;;;;;1566410;74;1916;-67
2022/08/01 07:54:47;;;;;;;;;;;27.10;38.80;;;;;;1576722;74;754;-68
2022/08/01 07:56:49;;;;;;;;;;;27.10;38.90;;;;;;1584096;74;646;-67
2022/08/01 07:58:51;;;;;;;;;;;27.00;38.90;;;;;;1562505;74;775;-69
2022/08/01 08:00:53;;;;;;;;;;;27.10;38.90;;;;;;1567508;74;663;-69
2022/08/01 08:02:58;;;;;;;;;;;27.20;38.90;;;;;;1578441;72;1200;-65
2022/08/01 08:04:58;;;;;;;;;;;27.20;38.80;;;;;;1573612;74;1241;-68
2022/08/01 08:07:00;;;;;;;;;;;27.20;38.70;;;;;;1582595;74;733;-66
2022/08/01 08:09:02;;;;;;;;;;;27.20;38.60;;;;;;1565991;74;675;-70
2022/08/01 08:11:04;;;;;;;;;;;27.30;38.50;;;;;;1580902;74;673;-67
2022/08/01 08:13:06;;;;;;;;;;;27.30;38.60;;;;;;1578160;73;1917;-67
2022/08/01 08:15:08;;;;;;;;;;;27.30;38.60;;;;;;1567080;74;688;-67
2022/08/01 08:17:10;;;;;;;;;;;27.20;38.70;;;;;;1580762;74;808;-67
2022/08/01 08:19:12;;;;;;;;;;;27.20;38.70;;;;;;1578390;74;683;-67
2022/08/01 08:21:13;;;;;;;;;;;27.10;38.80;;;;;;1571186;74;678;-70
2022/08/01 08:25:36;;;;;;;;;;;27.10;39.20;;;;;;1576989;74;1671;-68
2022/08/01 08:27:38;;;;;;;;;;;27.20;39.20;;;;;;1570733;74;670;-68
2022/08/01 08:29:40;;;;;;;;;;;27.20;39.00;;;;;;1570254;74;687;-69
2022/08/01 08:31:41;;;;;;;;;;;27.20;39.00;;;;;;1582210;74;683;-69
2022/08/01 08:33:43;;;;;;;;;;;27.20;39.00;;;;;;1569606;74;1945;-68
2022/08/01 08:35:45;;;;;;;;;;;27.20;39.00;;;;;;1568593;74;1578;-68
2022/08/01 08:37:47;;;;;;;;;;;27.20;39.10;;;;;;1570558;74;717;-68
2022/08/01 08:39:49;;;;;;;;;;;27.20;39.10;;;;;;1578359;74;686;-68
2022/08/01 08:41:51;;;;;;;;;;;27.10;39.10;;;;;;1576289;74;767;-69
2022/08/01 08:43:53;;;;;;;;;;;27.10;39.20;;;;;;1556763;74;1127;-68
2022/08/01 08:45:55;;;;;;;;;;;27.10;39.20;;;;;;1559967;74;788;-69
2022/08/01 08:47:57;;;;;;;;;;;27.10;39.20;;;;;;1573072;74;731;-68
2022/08/01 08:49:58;;;;;;;;;;;27.00;39.20;;;;;;1563182;74;691;-68
2022/08/01 08:52:01;;;;;;;;;;;27.10;39.20;;;;;;1579615;74;746;-67
2022/08/01 08:54:03;;;;;;;;;;;27.10;39.20;;;;;;1578671;72;1894;-67
2022/08/01 08:56:05;;;;;;;;;;;27.10;39.20;;;;;;1568419;74;701;-67
2022/08/01 08:58:06;;;;;;;;;;;27.00;39.20;;;;;;1572129;74;640;-68
2022/08/01 09:00:10;;;;;;;;;;;27.10;39.20;;;;;;1560164;74;814;-68
2022/08/01 09:02:12;;;;;;;;;;;27.00;39.20;;;;;;1573012;74;754;-67
2022/08/01 09:04:14;;;;;;;;;;;27.00;39.20;;;;;;1562593;72;1153;-67
2022/08/01 09:06:16;;;;;;;;;;;27.10;39.20;;;;;;1565113;74;783;-68
2022/08/01 09:08:17;;;;;;;;;;;27.10;39.20;;;;;;1560541;74;1251;-68
2022/08/01 09:10:19;;;;;;;;;;;27.10;39.20;;;;;;1566428;74;774;-68
2022/08/01 09:12:21;;;;;;;;;;;27.00;39.20;;;;;;1569803;74;753;-69
2022/08/01 09:14:25;;;;;;;;;;;27.00;39.20;;;;;;1569803;74;1941;-69
2022/08/01 09:16:27;;;;;;;;;;;27.00;39.10;;;;;;1570656;74;709;-68
2022/08/01 09:18:31;;;;;;;;;;;27.00;39.20;;;;;;1571703;74;738;-68
2022/08/01 09:20:35;;;;;;;;;;;27.10;39.20;;;;;;1570221;74;757;-67
2022/08/01 09:22:38;;;;;;;;;;;27.00;39.20;;;;;;1569426;74;1618;-68
2022/08/01 09:24:40;;;;;;;;;;;27.10;39.20;;;;;;1585544;74;678;-67
2022/08/01 09:26:42;;;;;;;;;;;27.10;39.10;;;;;;1561157;74;688;-69
2022/08/01 09:28:44;;;;;;;;;;;27.10;39.10;;;;;;1565456;74;727;-68
2022/08/01 09:30:46;;;;;;;;;;;27.10;39.00;;;;;;1565745;74;714;-69
2022/08/01 09:33:00;;;;;;;;;;;27.10;39.00;;;;;;1562522;74;1961;-67
2022/08/01 09:35:19;;;;;;;;;;;27.10;39.00;;;;;;1568155;74;1607;-68
2022/08/01 09:37:23;;;;;;;;;;;27.10;39.00;;;;;;1570282;74;736;-69
2022/08/01 09:39:26;;;;;;;;;;;27.10;39.00;;;;;;1562408;74;1658;-67
2022/08/01 09:41:31;;;;;;;;;;;27.20;39.00;;;;;;1559960;74;1927;-69
2022/08/01 09:43:33;;;;;;;;;;;27.10;39.00;;;;;;1563391;74;1110;-69
2022/08/01 09:45:35;;;;;;;;;;;27.10;39.00;;;;;;1554854;74;771;-69
2022/08/01 09:47:40;;;;;;;;;;;27.10;39.10;;;;;;1563218;74;760;-67
2022/08/01 09:49:42;;;;;;;;;;;27.10;39.00;;;;;;1566055;74;745;-69
2022/08/01 09:51:44;;;;;;;;;;;27.10;39.00;;;;;;1568754;74;770;-67
2022/08/01 09:53:46;;;;;;;;;;;27.10;39.00;;;;;;1580250;73;1951;-67
2022/08/01 09:55:52;;;;;;;;;;;27.10;39.00;;;;;;1559658;74;767;-68
2022/08/01 09:57:55;;;;;;;;;;;27.20;39.00;;;;;;1562960;74;1681;-68
2022/08/01 09:59:58;;;;;;;;;;;27.20;38.90;;;;;;1569129;74;804;-68
2022/08/01 10:02:00;;;;;;;;;;;27.10;39.00;;;;;;1577597;74;721;-68
2022/08/01 10:04:15;;;;;;;;;;;27.20;39.00;;;;;;1572339;72;1149;-68
2022/08/01 10:06:21;;;;;;;;;;;27.30;39.00;;;;;;1581642;74;771;-68
2022/08/01 10:08:25;;;;;;;;;;;27.10;38.90;;;;;;1568890;74;714;-68
2022/08/01 10:10:26;;;;;;;;;;;27.30;38.90;;;;;;1562906;74;1772;-68
2022/08/01 10:12:28;;;;;;;;;;;27.30;38.90;;;;;;1561740;74;713;-69
2022/08/01 10:14:30;;;;;;;;;;;27.20;38.90;;;;;;1572409;74;1951;-69
2022/08/01 10:16:32;;;;;;;;;;;27.20;38.90;;;;;;1570337;74;689;-68
2022/08/01 10:18:35;;;;;;;;;;;27.20;39.00;;;;;;1578912;74;665;-69
2022/08/01 10:20:36;;;;;;;;;;;27.30;39.00;;;;;;1588245;74;769;-69
2022/08/01 10:22:38;;;;;;;;;;;27.30;39.20;;;;;;1566717;74;1150;-70
2022/08/01 10:24:40;;;;;;;;;;;27.20;39.70;;;;;;1583923;74;656;-67
2022/08/01 10:26:42;;;;;;;;;;;27.20;39.50;;;;;;1582801;74;719;-67
2022/08/01 10:28:44;;;;;;;;;;;27.30;39.40;;;;;;1572069;74;1514;-68
2022/08/01 10:30:46;;;;;;;;;;;27.40;39.40;;;;;;1568871;74;684;-67
2022/08/01 10:32:48;;;;;;;;;;;27.40;39.30;;;;;;1573791;74;1139;-68
2022/08/01 10:34:50;;;;;;;;;;;27.40;39.00;;;;;;1572769;74;1936;-68
2022/08/01 10:36:52;;;;;;;;;;;27.40;38.80;;;;;;1571056;74;741;-67
2022/08/01 10:38:55;;;;;;;;;;;27.50;38.70;;;;;;1572268;74;741;-68
2022/08/01 10:40:57;;;;;;;;;;;27.40;38.60;;;;;;1577814;74;779;-67
2022/08/01 10:42:59;;;;;;;;;;;27.50;38.50;;;;;;1582623;74;1107;-67
2022/08/01 10:45:01;;;;;;;;;;;27.50;38.40;;;;;;1574807;74;772;-67
2022/08/01 10:47:13;;;;;;;;;;;27.50;38.30;;;;;;1577826;74;666;-67
2022/08/01 10:49:16;;;;;;;;;;;27.50;38.20;;;;;;1559795;74;761;-66
2022/08/01 10:51:20;;;;;;;;;;;27.60;38.20;;;;;;1585272;74;625;-67
2022/08/01 10:53:24;;;;;;;;;;;27.60;38.10;;;;;;1580029;74;1940;-65
2022/08/01 10:55:26;;;;;;;;;;;27.60;38.30;;;;;;1570320;74;763;-66
2022/08/01 10:57:30;;;;;;;;;;;27.60;38.40;;;;;;1582440;74;739;-65
2022/08/01 10:59:33;;;;;;;;;;;27.60;38.40;;;;;;1574206;74;1930;-65
2022/08/01 11:01:35;;;;;;;;;;;27.70;38.20;;;;;;1580502;74;661;-65
2022/08/01 11:03:37;;;;;;;;;;;27.60;38.60;;;;;;1574974;74;1145;-66
2022/08/01 11:05:38;;;;;;;;;;;27.60;38.80;;;;;;1566179;74;806;-65
2022/08/01 11:07:42;;;;;;;;;;;27.50;39.00;;;;;;1581737;74;714;-65
2022/08/01 11:09:45;;;;;;;;;;;27.60;38.90;;;;;;1565928;74;902;-67
2022/08/01 11:11:51;;;;;;;;;;;27.60;38.90;;;;;;1564203;74;788;-66
2022/08/01 11:14:00;;;;;;;;;;;27.70;38.60;;;;;;1565536;74;1937;-67
2022/08/01 11:16:04;;;;;;;;;;;27.70;38.20;;;;;;1581278;74;718;-66
2022/08/01 11:18:10;;;;;;;;;;;27.70;38.10;;;;;;1582430;74;1043;-68
2022/08/01 11:20:13;;;;;;;;;;;27.70;37.80;;;;;;1563466;74;1425;-68
2022/08/01 11:22:15;;;;;;;;;;;27.70;38.00;;;;;;1580382;74;746;-67
2022/08/01 11:24:16;;;;;;;;;;;27.70;38.20;;;;;;1575044;72;1569;-66
2022/08/01 11:26:18;;;;;;;;;;;27.70;38.10;;;;;;1581271;73;1202;-67
2022/08/01 11:28:23;;;;;;;;;;;27.70;37.70;;;;;;1582841;74;582;-67
2022/08/01 11:30:25;;;;;;;;;;;27.70;37.90;;;;;;1569778;74;2049;-67
2022/08/01 11:32:27;;;;;;;;;;;27.70;37.60;;;;;;1566629;74;774;-67
2022/08/01 11:34:47;;;;;;;;;;;27.60;37.70;;;;;;1583520;73;1946;-68
2022/08/01 11:36:49;;;;;;;;;;;27.70;37.70;;;;;;1574447;74;691;-68
2022/08/01 11:38:52;;;;;;;;;;;27.50;38.00;;;;;;1563868;74;734;-68
2022/08/01 11:41:11;;;;;;;;;;;27.60;38.00;;;;;;1557545;74;712;-68
2022/08/01 11:43:16;;;;;;;;;;;27.70;37.80;;;;;;1541486;76;1152;-68
2022/08/01 11:45:18;;;;;;;;;;;27.60;37.60;;;;;;1548223;74;933;-66
2022/08/01 11:47:21;;;;;;;;;;;27.70;37.60;;;;;;1562776;74;737;-68
2022/08/01 11:49:25;;;;;;;;;;;27.70;37.70;;;;;;1558498;74;956;-67
2022/08/01 11:51:27;;;;;;;;;;;27.70;37.80;;;;;;1568943;74;838;-67
2022/08/01 11:53:29;;;;;;;;;;;27.70;37.60;;;;;;1550623;74;1101;-64
2022/08/01 11:55:30;;;;;;;;;;;27.70;37.30;;;;;;1555407;74;687;-67
2022/08/01 11:57:37;;;;;;;;;;;27.70;37.70;;;;;;1566392;74;755;-67
2022/08/01 11:59:51;;;;;;;;;;;27.70;37.70;;;;;;1556507;74;709;-67
2022/08/01 12:01:53;;;;;;;;;;;27.70;37.60;;;;;;1558781;74;737;-67
2022/08/01 12:03:56;;;;;;;;;;;27.80;37.40;;;;;;1560359;74;1134;-67
2022/08/01 12:05:58;;;;;;;;;;;27.80;37.50;;;;;;1561501;74;850;-67
2022/08/01 12:08:00;;;;;;;;;;;27.80;37.40;;;;;;1566576;74;802;-67
2022/08/01 12:10:06;;;;;;;;;;;27.70;37.30;;;;;;1554330;74;694;-67
2022/08/01 12:12:07;;;;;;;;;;;27.80;37.20;;;;;;1561027;74;704;-68
2022/08/01 12:14:11;;;;;;;;;;;27.80;37.10;;;;;;1562385;74;1924;-68